Kakushu Maru — JG5688 — position and weather

sailwx.info

Track history (hours):
 
Tides and Currents Weather Stations Pressure Air Temp Water Temp Dewpoint Dewpoint Depression Visibility Wind Speed Wind Dir Waves Ship Positions

Kakushu Maru

Last reported at 2015-Apr-19 20:33 UTC. Time now 2015-Apr-19 21:08 UTC.
Position N 35°56' E 140°42'.

Length 105 m; draft 4.7 m.

Type: Tanker. MMSI: 431101016.

Date/timePositionNaut miles runAvg speedWind from/ knotsBaromVisibWave heightAir tempDewpointWater temp
2015-Apr-19 20:33N 35°56' E 140°42'4 3.1
2015-Apr-19 19:22N 35°59' E 140°44'0 0.0
2015-Apr-19 18:16N 35°59' E 140°44'0 0.0
2015-Apr-19 16:31N 35°59' E 140°44'0 0.0
2015-Apr-19 15:28N 35°59' E 140°44'0 0.0
2015-Apr-19 14:28N 35°59' E 140°44'910.0
2015-Apr-19 13:33N 35°51' E 140°50'1313.3
2015-Apr-19 12:34N 35°38' E 140°54'1514.9
2015-Apr-19 11:34N 35°26' E 140°44'1616.0
2015-Apr-19 10:33N 35°13' E 140°33'1615.2
2015-Apr-19 09:31N 35°02' E 140°19'1414.4
2015-Apr-19 08:33N 34°55' E 140°04'1413.6
2015-Apr-19 07:33N 34°53' E 139°47'1312.8
2015-Apr-19 06:33N 35°06' E 139°44'1212.2
2015-Apr-19 05:33N 35°18' E 139°44'1111.4
2015-Apr-19 04:33N 35°29' E 139°48'2 2.3
2015-Apr-19 03:33N 35°31' E 139°46'0 0.0
2015-Apr-19 02:30N 35°31' E 139°46'0 0.0
2015-Apr-19 01:24N 35°31' E 139°46'0 0.1
2015-Apr-19 00:34N 35°31' E 139°46'4 4.5
2015-Apr-18 23:33N 35°27' E 139°43'4 3.8
2015-Apr-18 22:33N 35°24' E 139°45'0 0.0
2015-Apr-18 21:33N 35°24' E 139°45'0 0.0
2015-Apr-18 20:33N 35°24' E 139°45'0 0.0
2015-Apr-18 19:33N 35°24' E 139°45'0 0.1
2015-Apr-18 18:33N 35°24' E 139°45'0 0.0
2015-Apr-18 17:33N 35°24' E 139°45'8 7.6
2015-Apr-18 16:34N 35°16' E 139°46'1212.4
2015-Apr-18 15:33N 35°05' E 139°41'1413.9
2015-Apr-18 14:33N 34°56' E 139°28'23012.8
2015-Apr-17 20:32N 33°54' E 134°59'1313.3
2015-Apr-17 19:33N 34°07' E 134°59'1414.3
2015-Apr-17 18:34N 34°21' E 134°60'1413.8
2015-Apr-17 17:33N 34°35' E 135°04'1814.6
2015-Apr-17 16:19N 34°31' E 134°42'12 0.3
2015-Apr-16 05:32N 34°36' E 134°55'1111.3
2015-Apr-16 04:33N 34°38' E 135°08'1 0.8
2015-Apr-16 03:25N 34°39' E 135°08'0 0.0
2015-Apr-16 02:13N 34°39' E 135°08'0 0.0
2015-Apr-16 00:31N 34°39' E 135°08'2 1.6
2015-Apr-15 23:33N 34°37' E 135°08'0 0.1
2015-Apr-15 22:32N 34°37' E 135°08'0 0.0
2015-Apr-15 21:26N 34°37' E 135°08'0 0.1
2015-Apr-15 20:32N 34°37' E 135°08'0 0.1
2015-Apr-15 19:26N 34°37' E 135°08'0 0.1
2015-Apr-15 18:32N 34°37' E 135°08'0 0.0
2015-Apr-15 17:26N 34°37' E 135°08'0 0.1
2015-Apr-15 16:32N 34°37' E 135°08'1 0.6
2015-Apr-15 15:34N 34°37' E 135°08'1413.1
2015-Apr-15 14:32N 34°34' E 134°52'  
Track history (hours):
 
Tides and Currents Weather Stations Pressure Air Temp Water Temp Dewpoint Dewpoint Depression Visibility Wind Speed Wind Dir Waves Ship Positions

Kakushu Maru

Last reported at 2015-Apr-19 20:33 UTC. Time now 2015-Apr-19 21:08 UTC.
Position N 35°56' E 140°42'.

Length 105 m; draft 4.7 m.

Type: Tanker. MMSI: 431101016.

Date/timePositionNaut miles runAvg speedWind from/ knotsBaromVisibWave heightAir tempDewpointWater temp
2015-Apr-19 20:33N 35°56' E 140°42'4 3.1
2015-Apr-19 19:22N 35°59' E 140°44'0 0.0
2015-Apr-19 18:16N 35°59' E 140°44'0 0.0
2015-Apr-19 16:31N 35°59' E 140°44'0 0.0
2015-Apr-19 15:28N 35°59' E 140°44'0 0.0
2015-Apr-19 14:28N 35°59' E 140°44'910.0
2015-Apr-19 13:33N 35°51' E 140°50'1313.3
2015-Apr-19 12:34N 35°38' E 140°54'1514.9
2015-Apr-19 11:34N 35°26' E 140°44'1616.0
2015-Apr-19 10:33N 35°13' E 140°33'1615.2
2015-Apr-19 09:31N 35°02' E 140°19'1414.4
2015-Apr-19 08:33N 34°55' E 140°04'1413.6
2015-Apr-19 07:33N 34°53' E 139°47'1312.8
2015-Apr-19 06:33N 35°06' E 139°44'1212.2
2015-Apr-19 05:33N 35°18' E 139°44'1111.4
2015-Apr-19 04:33N 35°29' E 139°48'2 2.3
2015-Apr-19 03:33N 35°31' E 139°46'0 0.0
2015-Apr-19 02:30N 35°31' E 139°46'0 0.0
2015-Apr-19 01:24N 35°31' E 139°46'0 0.1
2015-Apr-19 00:34N 35°31' E 139°46'4 4.5
2015-Apr-18 23:33N 35°27' E 139°43'4 3.8
2015-Apr-18 22:33N 35°24' E 139°45'0 0.0
2015-Apr-18 21:33N 35°24' E 139°45'0 0.0
2015-Apr-18 20:33N 35°24' E 139°45'0 0.0
2015-Apr-18 19:33N 35°24' E 139°45'0 0.1
2015-Apr-18 18:33N 35°24' E 139°45'0 0.0
2015-Apr-18 17:33N 35°24' E 139°45'8 7.6
2015-Apr-18 16:34N 35°16' E 139°46'1212.4
2015-Apr-18 15:33N 35°05' E 139°41'1413.9
2015-Apr-18 14:33N 34°56' E 139°28'23012.8
2015-Apr-17 20:32N 33°54' E 134°59'1313.3
2015-Apr-17 19:33N 34°07' E 134°59'1414.3
2015-Apr-17 18:34N 34°21' E 134°60'1413.8
2015-Apr-17 17:33N 34°35' E 135°04'1814.6
2015-Apr-17 16:19N 34°31' E 134°42'12 0.3
2015-Apr-16 05:32N 34°36' E 134°55'1111.3
2015-Apr-16 04:33N 34°38' E 135°08'1 0.8
2015-Apr-16 03:25N 34°39' E 135°08'0 0.0
2015-Apr-16 02:13N 34°39' E 135°08'0 0.0
2015-Apr-16 00:31N 34°39' E 135°08'2 1.6
2015-Apr-15 23:33N 34°37' E 135°08'0 0.1
2015-Apr-15 22:32N 34°37' E 135°08'0 0.0
2015-Apr-15 21:26N 34°37' E 135°08'0 0.1
2015-Apr-15 20:32N 34°37' E 135°08'0 0.1
2015-Apr-15 19:26N 34°37' E 135°08'0 0.1
2015-Apr-15 18:32N 34°37' E 135°08'0 0.0
2015-Apr-15 17:26N 34°37' E 135°08'0 0.1
2015-Apr-15 16:32N 34°37' E 135°08'1 0.6
2015-Apr-15 15:34N 34°37' E 135°08'1413.1
2015-Apr-15 14:32N 34°34' E 134°52'  

Dump ship's entire track history